Historyczne dane pomiarowe

Dodano dane terminowe – wersja testowa.

Dane z okresu 1951-2019

Wersja bazy: 1.34 [2019-03-16, lista zmian], aktualizacja planowana na 2019-04-15

Dane meteo z obszaru Polski uzyskane na podstawie danych udostępnionych przez Instytut Meteorologii i Gospodarki Wodnej – Państwowy Instytut Badawczy.

 

Wybierz Datę:    

       

TemperaturaWilgotnośćWiatrCiśnienieOpadyŚniegCzas trwania zjawisk
 Stacja t tx tn tng RH VA  wxwx mslp ppp RRR   cm mm wxwxwxwxwxwxwx
1994-08-14 14.6 18.3 12.3 11.0 75.8- 6.7 2.7---- 0.0------------
1994-08-13 16.9 20.9 15.1 14.2 89.0- 6.7 2.0---- 3.4------------
1994-08-12 17.0 18.9 15.7 14.2 85.8- 7.3 2.0---- 0.0------------
1994-08-11 16.8 20.3 11.3 9.5 89.0- 6.0 1.3---- 11.5------------
1994-08-10 19.5 23.8 16.1 15.2 75.5- 4.7 3.0---- 0.0------------
1994-08-09 19.6 25.2 16.0 15.2 85.3- 6.7 1.3---- 23.0------------
1994-08-08 19.8 27.0 16.1 14.3 89.5- 6.7 1.0---- 5.0------------
1994-08-07 24.4 29.7 15.2 12.6 52.3- 4.0 2.3---- 10.0------------
1994-08-06 25.3 32.7 15.2 13.1 52.5- 1.3 1.0---- 0.0------------
1994-08-05 24.7 31.7 14.8 13.1 65.8- 1.3 1.0---- 0.0------------
1994-08-04 23.3 30.7 15.7 14.2 72.0- 2.0 1.3---- 0.0------------
1994-08-03 24.3 30.7 17.3 15.2 65.0- 1.3 3.0---- 0.0------------
1994-08-02 26.3 32.9 14.7 13.6 53.0- 3.3 1.3---- 0.0------------
1994-08-01 27.3 34.7 18.6 15.7 58.5- 1.3 0.7---- 0.0------------
1994-07-31 26.9 33.9 16.6 14.2 62.8- 0.7 1.0---- 0.0------------
1994-07-30 27.0 33.7 15.4 13.1 55.0- 0.0 0.3---- 0.0------------
1994-07-29 25.6 34.7 15.2 12.6 48.0- 1.3 0.7---- 0.0------------
1994-07-28 26.1 35.7 14.7 12.1 53.0- 0.7 1.0---- 0.0------------
1994-07-27 26.6 32.7 15.4 11.9 47.5- 2.0 1.3---- 0.0------------
1994-07-26 24.1 30.7 14.2 11.0 47.0- 1.3 0.3---- 0.0------------
1994-07-25 24.2 30.7 13.2 10.5 48.3- 1.3 0.7---- 0.0------------
1994-07-24 24.0 29.7 12.3 9.5 51.0- 2.0 1.0---- 0.0------------
1994-07-23 22.4 27.7 12.7 12.2 59.8- 2.0 1.0---- 0.0------------
1994-07-22 20.0 24.8 9.9 7.0 68.0- 1.3 3.0---- 0.0------------
1994-07-21 20.2 25.8 9.8 8.2 64.8- 0.0 0.7---- 0.0------------
1994-07-20 17.2 22.8 9.3 6.1 62.3- 2.7 1.3---- 0.0------------
1994-07-19 17.9 23.4 12.7 10.5 71.8- 2.7 1.3---- 0.0------------
1994-07-18 19.4 24.0 17.1 16.3 85.0- 5.3 2.3---- 18.0------------
1994-07-17 22.0 28.0 15.2 13.1 74.8- 4.0 2.3---- 2.5------------
1994-07-16 24.0 31.7 13.2 10.5 60.0- 2.0 1.0---- 0.0------------
1994-07-15 23.5 28.3 16.5 15.0 61.3- 0.7 1.0---- 0.0------------
1994-07-14 24.4 29.7 17.9 14.2 57.0- 4.0 0.7---- 0.0------------
1994-07-13 23.5 29.5 14.0 10.2 43.8- 0.7 6.0---- 0.0------------
1994-07-12 22.5 28.7 14.7 11.9 65.0- 0.7 2.7---- 0.0------------
1994-07-11 18.7 21.9 12.7 10.5 79.3- 4.0 2.0---- 0.0------------
1994-07-10 17.3 24.3 9.5 9.0 79.8- 4.0 2.0---- 6.0------------
1994-07-09 13.5 16.7 9.8 7.2 96.5- 6.0 1.7---- 3.8------------
1994-07-08 16.9 24.1 13.2 9.8 80.5- 6.7 3.0---- 4.8------------
1994-07-07 19.8 25.8 11.3 8.0 66.5- 4.7 1.0---- 0.2------------
1994-07-06 19.2 22.8 9.9 6.1 51.8- 1.3 1.0---- 0.0------------
1994-07-05 19.7 25.8 11.3 7.5 60.8- 2.0 1.0---- 0.0------------
1994-07-04 20.0 24.8 9.3 5.6 60.3- 0.0 1.0---- 0.0------------
1994-07-03 18.2 24.8 8.1 4.1 61.5- 0.7 1.0---- 0.0------------
1994-07-02 17.1 22.8 8.7 4.6 70.5- 0.0 1.3---- 0.0------------
1994-07-01 18.2 23.0 10.7 6.6 65.8- 2.0 2.3---- 0.0------------
1994-06-30 21.4 25.0 16.6 14.0 76.0- 5.3 3.0---- 0.0------------
1994-06-29 22.3 28.7 13.8 11.0 65.0- 0.0 1.3---- 0.0------------
1994-06-28 22.6 26.8 16.1 12.9 65.0- 0.0 1.3---- 0.0------------
1994-06-27 24.1 30.7 17.1 13.6 52.0- 2.0 1.3---- 0.0------------
1994-06-26 20.3 27.7 9.8 5.6 61.3- 0.0 2.3---- 0.0------------
1994-06-25 15.1 20.3 5.8 2.1 72.8- 0.7 1.3---- 0.0------------
1994-06-24 13.9 17.9 8.3 6.1 50.5- 2.7 5.3---- 0.0------------
1994-06-23 16.8 22.4 14.2 13.3 57.3- 1.3 6.7---- 0.0------------
1994-06-22 18.4 24.3 8.3 4.6 67.3- 4.0 3.7---- 0.0------------
1994-06-21 14.8 19.3 6.3 3.1 66.3- 1.3 2.3---- 0.0------------
1994-06-20 16.0 18.9 10.5 10.2 68.3- 4.7 4.0---- 0.0------------
1994-06-19 15.1 18.4 11.3 8.6 77.8- 6.7 2.7---- 0.2------------
1994-06-18 12.1 15.9 5.1 2.9 68.0- 4.0 4.0---- 2.8------------
1994-06-17 11.1 13.9 8.3 7.7 74.3- 4.0 3.3---- 0.2------------
1994-06-16 11.3 14.9 6.3 4.4 69.8- 4.7 4.7---- 1.3------------
346.9 ms

 

Źródłem pochodzenia danych jest Instytut Meteorologii i Gospodarki Wodnej – Państwowy Instytut Badawczy. Dane Instytutu Meteorologii i Gospodarki Wodnej – Państwowego Instytutu Badawczego zostały przetworzone.

Dane źródłowe można odnaleźć na stronie https://dane.imgw.pl